sensor_id;sensor_type;location;lat;lon;timestamp;pressure;altitude;pressure_sealevel;temperature;humidity
70072;BME280;57434;42.794;23.302;2023-05-08T00:24:35;95548.88;;;9.66;nan
70072;BME280;57434;42.794;23.302;2023-05-08T00:41:08;95722.84;;;10.58;nan
70072;BME280;57434;42.794;23.302;2023-05-08T00:43:12;95701.22;;;10.24;nan
70072;BME280;57434;42.794;23.302;2023-05-08T00:46:17;95675.97;;;10.24;nan
70072;BME280;57434;42.794;23.302;2023-05-08T00:47:20;95815.63;;;11.10;nan
70072;BME280;57434;42.794;23.302;2023-05-08T00:51:28;95705.84;;;10.06;nan
70072;BME280;57434;42.794;23.302;2023-05-08T00:52:31;95846.34;;;10.78;nan
70072;BME280;57434;42.794;23.302;2023-05-08T00:53:38;95685.69;;;9.88;nan
70072;BME280;57434;42.794;23.302;2023-05-08T00:57:47;95713.63;;;9.82;nan
70072;BME280;57434;42.794;23.302;2023-05-08T01:10:11;95853.34;;;10.04;nan
70072;BME280;57434;42.794;23.302;2023-05-08T01:11:23;95854.19;;;10.25;nan
70072;BME280;57434;42.794;23.302;2023-05-08T01:17:49;95839.59;;;10.21;nan
70072;BME280;57434;42.794;23.302;2023-05-08T01:20:09;95850.97;;;10.32;nan
70072;BME280;57434;42.794;23.302;2023-05-08T01:21:25;95873.81;;;10.39;nan
70072;BME280;57434;42.794;23.302;2023-05-08T01:31:07;95843.94;;;10.22;nan
70072;BME280;57434;42.794;23.302;2023-05-08T01:32:22;95714.06;;;9.31;nan
70072;BME280;57434;42.794;23.302;2023-05-08T01:33:35;95849.09;;;10.08;nan
70072;BME280;57434;42.794;23.302;2023-05-08T01:35:51;95692.56;;;9.13;nan
70072;BME280;57434;42.794;23.302;2023-05-08T01:37:07;95804.53;;;9.81;nan
70072;BME280;57434;42.794;23.302;2023-05-08T01:39:50;95702.34;;;9.17;nan
70072;BME280;57434;42.794;23.302;2023-05-08T01:43:22;95672.47;;;8.85;nan
70072;BME280;57434;42.794;23.302;2023-05-08T01:46:39;95665.31;;;8.55;nan
70072;BME280;57434;42.794;23.302;2023-05-08T01:47:43;95698.00;;;8.63;nan
70072;BME280;57434;42.794;23.302;2023-05-08T01:51:06;95821.91;;;9.17;nan
70072;BME280;57434;42.794;23.302;2023-05-08T01:52:13;95826.13;;;9.22;nan
70072;BME280;57434;42.794;23.302;2023-05-08T01:53:23;95692.34;;;8.34;nan
70072;BME280;57434;42.794;23.302;2023-05-08T01:56:36;95696.91;;;8.46;nan
70072;BME280;57434;42.794;23.302;2023-05-08T01:57:47;95696.75;;;8.64;nan
70072;BME280;57434;42.794;23.302;2023-05-08T01:59:55;95796.63;;;9.35;nan
70072;BME280;57434;42.794;23.302;2023-05-08T02:02:01;95795.47;;;9.18;nan
70072;BME280;57434;42.794;23.302;2023-05-08T02:04:07;95717.88;;;8.65;nan
70072;BME280;57434;42.794;23.302;2023-05-08T02:06:14;95850.59;;;9.50;nan
70072;BME280;57434;42.794;23.302;2023-05-08T02:33:20;95839.53;;;8.94;nan
70072;BME280;57434;42.794;23.302;2023-05-08T03:14:38;95710.56;;;7.72;nan
70072;BME280;57434;42.794;23.302;2023-05-08T05:30:52;95734.16;;;11.87;nan
70072;BME280;57434;42.794;23.302;2023-05-08T05:32:56;95741.81;;;11.87;nan
70072;BME280;57434;42.794;23.302;2023-05-08T05:33:58;95861.38;;;12.66;nan
70072;BME280;57434;42.794;23.302;2023-05-08T05:36:02;95751.44;;;12.06;nan
70072;BME280;57434;42.794;23.302;2023-05-08T05:37:04;95740.28;;;12.17;nan
70072;BME280;57434;42.794;23.302;2023-05-08T05:38:05;95733.66;;;12.20;nan
70072;BME280;57434;42.794;23.302;2023-05-08T05:39:07;95851.25;;;12.85;nan
70072;BME280;57434;42.794;23.302;2023-05-08T05:40:09;95695.88;;;11.96;nan
70072;BME280;57434;42.794;23.302;2023-05-08T05:42:13;95835.97;;;13.03;nan
70072;BME280;57434;42.794;23.302;2023-05-08T05:47:21;95836.94;;;13.42;nan
70072;BME280;57434;42.794;23.302;2023-05-08T05:49:25;95749.50;;;13.26;nan
70072;BME280;57434;42.794;23.302;2023-05-08T05:50:27;95706.94;;;13.07;nan
70072;BME280;57434;42.794;23.302;2023-05-08T05:51:29;95696.47;;;13.13;nan
70072;BME280;57434;42.794;23.302;2023-05-08T05:52:31;95734.47;;;13.45;nan
70072;BME280;57434;42.794;23.302;2023-05-08T05:53:32;95719.47;;;13.06;nan
70072;BME280;57434;42.794;23.302;2023-05-08T05:54:34;95808.03;;;13.59;nan
70072;BME280;57434;42.794;23.302;2023-05-08T05:55:36;95726.97;;;13.20;nan
70072;BME280;57434;42.794;23.302;2023-05-08T05:56:38;95694.09;;;12.89;nan
70072;BME280;57434;42.794;23.302;2023-05-08T05:57:39;95714.41;;;13.15;nan
70072;BME280;57434;42.794;23.302;2023-05-08T05:58:41;95821.94;;;13.96;nan
70072;BME280;57434;42.794;23.302;2023-05-08T05:59:43;95856.84;;;14.20;nan
70072;BME280;57434;42.794;23.302;2023-05-08T06:00:45;95684.69;;;13.14;nan
70072;BME280;57434;42.794;23.302;2023-05-08T06:01:47;95828.63;;;13.98;nan
70072;BME280;57434;42.794;23.302;2023-05-08T06:02:49;95820.44;;;14.17;nan
70072;BME280;57434;42.794;23.302;2023-05-08T06:03:51;95698.09;;;13.47;nan
70072;BME280;57434;42.794;23.302;2023-05-08T06:04:53;95775.53;;;13.91;nan
70072;BME280;57434;42.794;23.302;2023-05-08T06:05:54;95680.41;;;13.52;nan
70072;BME280;57434;42.794;23.302;2023-05-08T06:06:57;95824.31;;;14.59;nan
70072;BME280;57434;42.794;23.302;2023-05-08T06:07:59;95677.09;;;13.65;nan
70072;BME280;57434;42.794;23.302;2023-05-08T06:09:00;95802.97;;;14.63;nan
70072;BME280;57434;42.794;23.302;2023-05-08T06:10:02;95728.63;;;13.94;nan
70072;BME280;57434;42.794;23.302;2023-05-08T06:11:04;95830.44;;;14.40;nan
70072;BME280;57434;42.794;23.302;2023-05-08T06:12:06;95835.81;;;14.72;nan
70072;BME280;57434;42.794;23.302;2023-05-08T06:13:08;95687.59;;;13.87;nan
70072;BME280;57434;42.794;23.302;2023-05-08T06:14:10;95792.97;;;14.51;nan
70072;BME280;57434;42.794;23.302;2023-05-08T06:15:12;95696.81;;;14.04;nan
70072;BME280;57434;42.794;23.302;2023-05-08T06:16:14;95805.28;;;14.65;nan
70072;BME280;57434;42.794;23.302;2023-05-08T06:17:16;95687.31;;;14.07;nan
70072;BME280;57434;42.794;23.302;2023-05-08T06:18:18;95693.97;;;14.21;nan
70072;BME280;57434;42.794;23.302;2023-05-08T06:19:20;95703.72;;;14.26;nan
70072;BME280;57434;42.794;23.302;2023-05-08T06:20:22;95707.25;;;14.48;nan
70072;BME280;57434;42.794;23.302;2023-05-08T06:21:25;95694.16;;;14.40;nan
70072;BME280;57434;42.794;23.302;2023-05-08T06:22:27;95735.69;;;14.67;nan
70072;BME280;57434;42.794;23.302;2023-05-08T06:23:29;95714.19;;;14.47;nan
70072;BME280;57434;42.794;23.302;2023-05-08T06:24:30;95733.63;;;14.73;nan
70072;BME280;57434;42.794;23.302;2023-05-08T06:25:32;95738.50;;;14.78;nan
70072;BME280;57434;42.794;23.302;2023-05-08T06:26:34;95669.09;;;14.19;nan
70072;BME280;57434;42.794;23.302;2023-05-08T06:27:36;95731.94;;;14.20;nan
70072;BME280;57434;42.794;23.302;2023-05-08T06:28:38;95842.19;;;14.95;nan
70072;BME280;57434;42.794;23.302;2023-05-08T06:29:39;95685.25;;;14.19;nan
70072;BME280;57434;42.794;23.302;2023-05-08T06:30:41;95851.34;;;15.34;nan
70072;BME280;57434;42.794;23.302;2023-05-08T06:31:43;95849.56;;;15.25;nan
70072;BME280;57434;42.794;23.302;2023-05-08T06:32:45;95680.06;;;14.40;nan
70072;BME280;57434;42.794;23.302;2023-05-08T06:33:47;95859.75;;;15.45;nan
70072;BME280;57434;42.794;23.302;2023-05-08T06:34:49;95697.75;;;14.57;nan
70072;BME280;57434;42.794;23.302;2023-05-08T06:35:50;95691.06;;;14.60;nan
70072;BME280;57434;42.794;23.302;2023-05-08T06:36:52;95716.44;;;14.71;nan
70072;BME280;57434;42.794;23.302;2023-05-08T06:37:54;95813.03;;;15.33;nan
70072;BME280;57434;42.794;23.302;2023-05-08T06:38:56;95705.13;;;14.77;nan
70072;BME280;57434;42.794;23.302;2023-05-08T06:39:58;95694.59;;;14.83;nan
70072;BME280;57434;42.794;23.302;2023-05-08T06:41:11;95699.41;;;14.94;nan
70072;BME280;57434;42.794;23.302;2023-05-08T06:42:15;95689.88;;;14.97;nan
70072;BME280;57434;42.794;23.302;2023-05-08T06:43:17;95712.09;;;15.22;nan
70072;BME280;57434;42.794;23.302;2023-05-08T06:44:19;95833.78;;;15.99;nan
70072;BME280;57434;42.794;23.302;2023-05-08T06:45:21;95809.34;;;16.02;nan
70072;BME280;57434;42.794;23.302;2023-05-08T06:46:23;95843.28;;;16.02;nan
70072;BME280;57434;42.794;23.302;2023-05-08T06:47:24;95718.56;;;15.64;nan
70072;BME280;57434;42.794;23.302;2023-05-08T06:48:26;95854.25;;;16.52;nan
70072;BME280;57434;42.794;23.302;2023-05-08T06:49:28;95732.03;;;15.88;nan
70072;BME280;57434;42.794;23.302;2023-05-08T06:50:30;95781.00;;;16.37;nan
70072;BME280;57434;42.794;23.302;2023-05-08T06:51:32;95853.69;;;16.59;nan
70072;BME280;57434;42.794;23.302;2023-05-08T06:52:34;95843.22;;;16.78;nan
70072;BME280;57434;42.794;23.302;2023-05-08T06:53:36;95702.81;;;16.04;nan
70072;BME280;57434;42.794;23.302;2023-05-08T06:54:38;95769.25;;;16.27;nan
70072;BME280;57434;42.794;23.302;2023-05-08T06:55:42;95678.03;;;15.86;nan
70072;BME280;57434;42.794;23.302;2023-05-08T06:56:44;95679.28;;;15.90;nan
70072;BME280;57434;42.794;23.302;2023-05-08T06:57:46;95649.22;;;15.52;nan
70072;BME280;57434;42.794;23.302;2023-05-08T06:58:48;95712.75;;;16.16;nan
70072;BME280;57434;42.794;23.302;2023-05-08T07:00:01;95760.22;;;16.59;nan
70072;BME280;57434;42.794;23.302;2023-05-08T07:01:03;95690.38;;;16.13;nan
70072;BME280;57434;42.794;23.302;2023-05-08T07:02:05;95684.84;;;16.26;nan
70072;BME280;57434;42.794;23.302;2023-05-08T07:03:07;95797.81;;;17.08;nan
70072;BME280;57434;42.794;23.302;2023-05-08T07:04:09;95724.69;;;16.58;nan
70072;BME280;57434;42.794;23.302;2023-05-08T07:05:11;95676.38;;;15.96;nan
70072;BME280;57434;42.794;23.302;2023-05-08T07:06:13;95785.94;;;16.61;nan
70072;BME280;57434;42.794;23.302;2023-05-08T07:07:15;95720.19;;;16.19;nan
70072;BME280;57434;42.794;23.302;2023-05-08T07:08:17;95726.09;;;16.46;nan
70072;BME280;57434;42.794;23.302;2023-05-08T07:09:19;95812.78;;;17.09;nan
70072;BME280;57434;42.794;23.302;2023-05-08T07:10:21;95700.81;;;16.23;nan
70072;BME280;57434;42.794;23.302;2023-05-08T07:11:23;95715.56;;;16.46;nan
70072;BME280;57434;42.794;23.302;2023-05-08T07:12:24;95715.66;;;16.35;nan
70072;BME280;57434;42.794;23.302;2023-05-08T07:13:26;95693.41;;;16.20;nan
70072;BME280;57434;42.794;23.302;2023-05-08T07:14:28;95668.28;;;16.11;nan
70072;BME280;57434;42.794;23.302;2023-05-08T07:15:31;95685.94;;;16.47;nan
70072;BME280;57434;42.794;23.302;2023-05-08T07:16:33;95699.66;;;16.62;nan
70072;BME280;57434;42.794;23.302;2023-05-08T07:17:35;95814.09;;;17.51;nan
70072;BME280;57434;42.794;23.302;2023-05-08T07:18:37;95836.25;;;17.52;nan
70072;BME280;57434;42.794;23.302;2023-05-08T07:19:39;95845.63;;;17.66;nan
70072;BME280;57434;42.794;23.302;2023-05-08T07:20:40;95707.81;;;16.96;nan
70072;BME280;57434;42.794;23.302;2023-05-08T07:21:42;95693.75;;;16.60;nan
70072;BME280;57434;42.794;23.302;2023-05-08T07:22:44;95656.09;;;16.46;nan
70072;BME280;57434;42.794;23.302;2023-05-08T07:23:46;95853.19;;;17.82;nan
70072;BME280;57434;42.794;23.302;2023-05-08T07:24:48;95818.78;;;17.67;nan
70072;BME280;57434;42.794;23.302;2023-05-08T07:25:50;95706.88;;;17.06;nan
70072;BME280;57434;42.794;23.302;2023-05-08T07:26:51;95702.63;;;17.18;nan
70072;BME280;57434;42.794;23.302;2023-05-08T07:27:53;95680.59;;;17.06;nan
70072;BME280;57434;42.794;23.302;2023-05-08T07:28:55;95804.44;;;17.97;nan
70072;BME280;57434;42.794;23.302;2023-05-08T07:29:57;95822.97;;;18.36;nan
70072;BME280;57434;42.794;23.302;2023-05-08T07:30:58;95820.97;;;18.31;nan
70072;BME280;57434;42.794;23.302;2023-05-08T07:32:01;95848.88;;;18.45;nan
70072;BME280;57434;42.794;23.302;2023-05-08T07:33:03;95667.69;;;17.29;nan
70072;BME280;57434;42.794;23.302;2023-05-08T07:34:04;95820.66;;;18.34;nan
70072;BME280;57434;42.794;23.302;2023-05-08T07:35:07;95834.81;;;18.21;nan
70072;BME280;57434;42.794;23.302;2023-05-08T07:36:11;95834.38;;;18.49;nan
70072;BME280;57434;42.794;23.302;2023-05-08T07:37:13;95684.53;;;17.59;nan
70072;BME280;57434;42.794;23.302;2023-05-08T07:38:14;95795.13;;;18.66;nan
70072;BME280;57434;42.794;23.302;2023-05-08T07:39:16;95821.97;;;19.10;nan
70072;BME280;57434;42.794;23.302;2023-05-08T07:40:18;95829.06;;;19.17;nan
70072;BME280;57434;42.794;23.302;2023-05-08T07:41:20;95683.28;;;18.05;nan
70072;BME280;57434;42.794;23.302;2023-05-08T07:42:22;95706.09;;;18.00;nan
70072;BME280;57434;42.794;23.302;2023-05-08T07:43:24;95683.75;;;17.77;nan
70072;BME280;57434;42.794;23.302;2023-05-08T07:44:25;95690.97;;;17.22;nan
70072;BME280;57434;42.794;23.302;2023-05-08T07:45:28;95838.59;;;17.73;nan
70072;BME280;57434;42.794;23.302;2023-05-08T07:46:29;95822.78;;;17.58;nan
70072;BME280;57434;42.794;23.302;2023-05-08T07:47:31;95731.50;;;17.17;nan
70072;BME280;57434;42.794;23.302;2023-05-08T07:48:33;95815.13;;;17.91;nan
70072;BME280;57434;42.794;23.302;2023-05-08T07:49:35;95791.41;;;17.88;nan
70072;BME280;57434;42.794;23.302;2023-05-08T07:50:37;95688.44;;;17.00;nan
70072;BME280;57434;42.794;23.302;2023-05-08T07:51:39;95711.59;;;17.04;nan
70072;BME280;57434;42.794;23.302;2023-05-08T07:52:40;95819.19;;;17.34;nan
70072;BME280;57434;42.794;23.302;2023-05-08T07:53:42;95793.75;;;17.47;nan
70072;BME280;57434;42.794;23.302;2023-05-08T07:54:44;95823.88;;;17.07;nan
70072;BME280;57434;42.794;23.302;2023-05-08T07:55:46;95682.38;;;16.41;nan
70072;BME280;57434;42.794;23.302;2023-05-08T07:56:48;95822.16;;;17.66;nan
70072;BME280;57434;42.794;23.302;2023-05-08T07:57:50;95827.69;;;18.14;nan
70072;BME280;57434;42.794;23.302;2023-05-08T07:58:52;95858.59;;;18.37;nan
70072;BME280;57434;42.794;23.302;2023-05-08T07:59:53;95832.84;;;18.67;nan
70072;BME280;57434;42.794;23.302;2023-05-08T08:00:55;95824.22;;;18.85;nan
70072;BME280;57434;42.794;23.302;2023-05-08T08:01:57;95854.13;;;19.18;nan
70072;BME280;57434;42.794;23.302;2023-05-08T08:02:59;95727.25;;;18.44;nan
70072;BME280;57434;42.794;23.302;2023-05-08T08:04:01;95677.75;;;18.26;nan
70072;BME280;57434;42.794;23.302;2023-05-08T08:05:04;95734.09;;;18.54;nan
70072;BME280;57434;42.794;23.302;2023-05-08T08:06:06;95695.16;;;18.36;nan
70072;BME280;57434;42.794;23.302;2023-05-08T08:07:08;95709.47;;;18.43;nan
70072;BME280;57434;42.794;23.302;2023-05-08T08:08:10;95723.56;;;18.49;nan
70072;BME280;57434;42.794;23.302;2023-05-08T08:09:12;95716.44;;;18.29;nan
70072;BME280;57434;42.794;23.302;2023-05-08T08:10:13;95828.72;;;19.07;nan
70072;BME280;57434;42.794;23.302;2023-05-08T08:11:15;95824.16;;;19.17;nan
70072;BME280;57434;42.794;23.302;2023-05-08T08:12:17;95860.19;;;19.41;nan
70072;BME280;57434;42.794;23.302;2023-05-08T08:13:19;95822.28;;;19.33;nan
70072;BME280;57434;42.794;23.302;2023-05-08T08:14:21;95837.16;;;19.13;nan
70072;BME280;57434;42.794;23.302;2023-05-08T08:15:22;95845.28;;;19.22;nan
70072;BME280;57434;42.794;23.302;2023-05-08T08:16:24;95831.56;;;18.94;nan
70072;BME280;57434;42.794;23.302;2023-05-08T08:17:26;95819.13;;;19.10;nan
70072;BME280;57434;42.794;23.302;2023-05-08T08:18:33;95691.50;;;18.22;nan
70072;BME280;57434;42.794;23.302;2023-05-08T08:19:34;95855.97;;;19.29;nan
70072;BME280;57434;42.794;23.302;2023-05-08T08:20:36;95831.94;;;19.17;nan
70072;BME280;57434;42.794;23.302;2023-05-08T08:21:42;95724.34;;;18.49;nan
70072;BME280;57434;42.794;23.302;2023-05-08T08:22:44;95845.38;;;19.16;nan
70072;BME280;57434;42.794;23.302;2023-05-08T08:23:46;95789.44;;;18.79;nan
70072;BME280;57434;42.794;23.302;2023-05-08T08:24:47;95845.69;;;19.13;nan
70072;BME280;57434;42.794;23.302;2023-05-08T08:25:49;95721.94;;;18.40;nan
70072;BME280;57434;42.794;23.302;2023-05-08T08:26:51;95853.00;;;19.08;nan
70072;BME280;57434;42.794;23.302;2023-05-08T08:27:53;95845.94;;;19.54;nan
70072;BME280;57434;42.794;23.302;2023-05-08T08:28:55;95700.91;;;18.62;nan
70072;BME280;57434;42.794;23.302;2023-05-08T08:29:56;95826.69;;;19.60;nan
70072;BME280;57434;42.794;23.302;2023-05-08T08:31:16;95824.34;;;19.85;nan
70072;BME280;57434;42.794;23.302;2023-05-08T08:32:18;95823.44;;;20.04;nan
70072;BME280;57434;42.794;23.302;2023-05-08T08:33:19;95820.78;;;20.06;nan
70072;BME280;57434;42.794;23.302;2023-05-08T08:34:21;95768.56;;;19.56;nan
70072;BME280;57434;42.794;23.302;2023-05-08T08:35:23;95824.88;;;19.84;nan
70072;BME280;57434;42.794;23.302;2023-05-08T08:36:25;95835.06;;;19.79;nan
70072;BME280;57434;42.794;23.302;2023-05-08T08:37:27;95818.09;;;19.87;nan
70072;BME280;57434;42.794;23.302;2023-05-08T08:38:29;95818.31;;;19.89;nan
70072;BME280;57434;42.794;23.302;2023-05-08T08:39:34;95812.16;;;19.98;nan
70072;BME280;57434;42.794;23.302;2023-05-08T08:40:39;95670.91;;;19.01;nan
70072;BME280;57434;42.794;23.302;2023-05-08T08:41:42;95686.41;;;19.26;nan
70072;BME280;57434;42.794;23.302;2023-05-08T08:42:43;95707.09;;;19.00;nan
70072;BME280;57434;42.794;23.302;2023-05-08T08:43:45;95788.56;;;19.77;nan
70072;BME280;57434;42.794;23.302;2023-05-08T08:44:47;95780.03;;;19.64;nan
70072;BME280;57434;42.794;23.302;2023-05-08T08:45:49;95666.78;;;18.88;nan
70072;BME280;57434;42.794;23.302;2023-05-08T08:46:51;95797.56;;;19.54;nan
70072;BME280;57434;42.794;23.302;2023-05-08T08:47:55;95792.34;;;19.45;nan
70072;BME280;57434;42.794;23.302;2023-05-08T08:49:02;95790.78;;;19.57;nan
70072;BME280;57434;42.794;23.302;2023-05-08T08:50:07;95808.06;;;19.73;nan
70072;BME280;57434;42.794;23.302;2023-05-08T08:51:14;95800.16;;;19.79;nan
70072;BME280;57434;42.794;23.302;2023-05-08T08:53:31;95804.56;;;19.53;nan
70072;BME280;57434;42.794;23.302;2023-05-08T08:54:35;95687.34;;;18.81;nan
70072;BME280;57434;42.794;23.302;2023-05-08T08:55:44;95669.41;;;18.73;nan
70072;BME280;57434;42.794;23.302;2023-05-08T08:56:48;95668.97;;;18.56;nan
70072;BME280;57434;42.794;23.302;2023-05-08T08:59:00;95696.72;;;18.76;nan
70072;BME280;57434;42.794;23.302;2023-05-08T09:00:06;95786.84;;;19.21;nan
70072;BME280;57434;42.794;23.302;2023-05-08T09:01:14;95794.41;;;19.18;nan
70072;BME280;57434;42.794;23.302;2023-05-08T09:02:18;95802.59;;;19.22;nan
70072;BME280;57434;42.794;23.302;2023-05-08T09:03:21;95645.53;;;18.10;nan
70072;BME280;57434;42.794;23.302;2023-05-08T09:04:23;95792.63;;;18.89;nan
70072;BME280;57434;42.794;23.302;2023-05-08T09:05:25;95788.59;;;18.84;nan
70072;BME280;57434;42.794;23.302;2023-05-08T09:06:27;95670.84;;;18.08;nan
70072;BME280;57434;42.794;23.302;2023-05-08T09:07:29;95779.72;;;18.43;nan
70072;BME280;57434;42.794;23.302;2023-05-08T09:08:33;95638.13;;;17.56;nan
70072;BME280;57434;42.794;23.302;2023-05-08T09:09:38;95669.19;;;17.68;nan
70072;BME280;57434;42.794;23.302;2023-05-08T09:10:40;95729.50;;;18.19;nan
70072;BME280;57434;42.794;23.302;2023-05-08T09:11:42;95637.28;;;17.62;nan
70072;BME280;57434;42.794;23.302;2023-05-08T09:12:47;95638.88;;;17.76;nan
70072;BME280;57434;42.794;23.302;2023-05-08T09:13:49;95786.38;;;18.64;nan
70072;BME280;57434;42.794;23.302;2023-05-08T09:14:51;95776.19;;;18.55;nan
70072;BME280;57434;42.794;23.302;2023-05-08T09:15:54;95633.97;;;17.76;nan
70072;BME280;57434;42.794;23.302;2023-05-08T09:16:56;95732.09;;;18.49;nan
70072;BME280;57434;42.794;23.302;2023-05-08T09:18:00;95763.84;;;18.66;nan
70072;BME280;57434;42.794;23.302;2023-05-08T09:19:02;95695.34;;;18.24;nan
70072;BME280;57434;42.794;23.302;2023-05-08T09:20:06;95630.63;;;17.91;nan
70072;BME280;57434;42.794;23.302;2023-05-08T09:21:08;95633.69;;;17.93;nan
70072;BME280;57434;42.794;23.302;2023-05-08T09:22:10;95752.97;;;18.97;nan
70072;BME280;57434;42.794;23.302;2023-05-08T09:23:13;95737.63;;;19.00;nan
70072;BME280;57434;42.794;23.302;2023-05-08T09:24:15;95620.00;;;18.37;nan
70072;BME280;57434;42.794;23.302;2023-05-08T09:25:17;95641.22;;;18.62;nan
70072;BME280;57434;42.794;23.302;2023-05-08T09:26:38;95623.72;;;18.71;nan
70072;BME280;57434;42.794;23.302;2023-05-08T09:27:40;95697.16;;;19.20;nan
70072;BME280;57434;42.794;23.302;2023-05-08T09:28:42;95786.38;;;19.70;nan
70072;BME280;57434;42.794;23.302;2023-05-08T09:30:58;95645.16;;;18.59;nan
70072;BME280;57434;42.794;23.302;2023-05-08T09:32:00;95784.19;;;19.76;nan
70072;BME280;57434;42.794;23.302;2023-05-08T09:33:02;95791.53;;;19.58;nan
70072;BME280;57434;42.794;23.302;2023-05-08T09:34:09;95631.59;;;18.65;nan
70072;BME280;57434;42.794;23.302;2023-05-08T09:35:11;95779.28;;;19.63;nan
70072;BME280;57434;42.794;23.302;2023-05-08T09:36:24;95635.81;;;18.98;nan
70072;BME280;57434;42.794;23.302;2023-05-08T09:37:27;95802.25;;;20.12;nan
70072;BME280;57434;42.794;23.302;2023-05-08T09:39:30;95618.84;;;19.06;nan
70072;BME280;57434;42.794;23.302;2023-05-08T09:40:32;95631.13;;;19.35;nan
70072;BME280;57434;42.794;23.302;2023-05-08T09:41:34;95680.44;;;19.64;nan
70072;BME280;57434;42.794;23.302;2023-05-08T09:42:39;95777.78;;;20.17;nan
70072;BME280;57434;42.794;23.302;2023-05-08T09:43:59;95755.34;;;20.26;nan
70072;BME280;57434;42.794;23.302;2023-05-08T09:45:01;95770.75;;;20.52;nan
70072;BME280;57434;42.794;23.302;2023-05-08T09:47:22;95686.97;;;19.72;nan
70072;BME280;57434;42.794;23.302;2023-05-08T09:48:36;95660.19;;;19.20;nan
70072;BME280;57434;42.794;23.302;2023-05-08T09:49:38;95744.72;;;19.80;nan
70072;BME280;57434;42.794;23.302;2023-05-08T09:50:40;95622.72;;;18.95;nan
70072;BME280;57434;42.794;23.302;2023-05-08T09:51:51;95654.09;;;19.50;nan
70072;BME280;57434;42.794;23.302;2023-05-08T09:52:53;95776.38;;;20.44;nan
70072;BME280;57434;42.794;23.302;2023-05-08T09:53:57;95662.66;;;20.12;nan
70072;BME280;57434;42.794;23.302;2023-05-08T09:55:04;95748.41;;;20.84;nan
70072;BME280;57434;42.794;23.302;2023-05-08T09:56:06;95680.22;;;20.66;nan
70072;BME280;57434;42.794;23.302;2023-05-08T09:57:11;95747.47;;;21.10;nan
70072;BME280;57434;42.794;23.302;2023-05-08T09:58:13;95733.13;;;21.31;nan
70072;BME280;57434;42.794;23.302;2023-05-08T09:59:26;95732.41;;;21.38;nan
70072;BME280;57434;42.794;23.302;2023-05-08T10:00:28;95595.59;;;20.24;nan
70072;BME280;57434;42.794;23.302;2023-05-08T10:01:34;95747.50;;;21.18;nan
70072;BME280;57434;42.794;23.302;2023-05-08T10:02:38;95747.78;;;20.78;nan
70072;BME280;57434;42.794;23.302;2023-05-08T10:03:48;95598.84;;;19.87;nan
70072;BME280;57434;42.794;23.302;2023-05-08T10:04:50;95751.97;;;20.77;nan
70072;BME280;57434;42.794;23.302;2023-05-08T10:05:52;95724.69;;;20.69;nan
70072;BME280;57434;42.794;23.302;2023-05-08T10:06:56;95593.03;;;19.72;nan
70072;BME280;57434;42.794;23.302;2023-05-08T10:08:16;95614.91;;;19.77;nan
70072;BME280;57434;42.794;23.302;2023-05-08T10:09:18;95751.03;;;20.54;nan
70072;BME280;57434;42.794;23.302;2023-05-08T10:10:26;95616.84;;;19.61;nan
70072;BME280;57434;42.794;23.302;2023-05-08T10:11:28;95728.84;;;20.39;nan
70072;BME280;57434;42.794;23.302;2023-05-08T10:12:30;95760.22;;;20.68;nan
70072;BME280;57434;42.794;23.302;2023-05-08T10:13:32;95776.44;;;20.73;nan
70072;BME280;57434;42.794;23.302;2023-05-08T10:14:34;95737.09;;;20.71;nan
70072;BME280;57434;42.794;23.302;2023-05-08T10:15:37;95616.19;;;20.17;nan
70072;BME280;57434;42.794;23.302;2023-05-08T10:16:43;95753.13;;;21.03;nan
70072;BME280;57434;42.794;23.302;2023-05-08T10:17:54;95607.97;;;20.35;nan
70072;BME280;57434;42.794;23.302;2023-05-08T10:19:00;95715.88;;;21.08;nan
70072;BME280;57434;42.794;23.302;2023-05-08T10:20:06;95739.50;;;21.52;nan
70072;BME280;57434;42.794;23.302;2023-05-08T10:21:08;95735.06;;;21.44;nan
70072;BME280;57434;42.794;23.302;2023-05-08T10:22:11;95716.25;;;21.48;nan
70072;BME280;57434;42.794;23.302;2023-05-08T10:23:15;95739.53;;;21.60;nan
70072;BME280;57434;42.794;23.302;2023-05-08T10:24:31;95753.91;;;21.83;nan
70072;BME280;57434;42.794;23.302;2023-05-08T10:25:33;95591.19;;;21.32;nan
70072;BME280;57434;42.794;23.302;2023-05-08T10:26:38;95697.41;;;22.04;nan
70072;BME280;57434;42.794;23.302;2023-05-08T10:28:05;95585.75;;;21.64;nan
70072;BME280;57434;42.794;23.302;2023-05-08T10:29:16;95686.97;;;22.37;nan
70072;BME280;57434;42.794;23.302;2023-05-08T10:30:23;95731.22;;;22.74;nan
70072;BME280;57434;42.794;23.302;2023-05-08T10:31:32;95682.41;;;22.72;nan
70072;BME280;57434;42.794;23.302;2023-05-08T10:32:37;95622.94;;;22.63;nan
70072;BME280;57434;42.794;23.302;2023-05-08T10:33:43;95723.38;;;22.98;nan
70072;BME280;57434;42.794;23.302;2023-05-08T10:34:50;95581.78;;;21.82;nan
70072;BME280;57434;42.794;23.302;2023-05-08T10:35:52;95593.41;;;22.38;nan
70072;BME280;57434;42.794;23.302;2023-05-08T10:36:54;95690.31;;;23.19;nan
70072;BME280;57434;42.794;23.302;2023-05-08T10:37:57;95615.53;;;22.22;nan
70072;BME280;57434;42.794;23.302;2023-05-08T10:39:00;95694.97;;;22.84;nan
70072;BME280;57434;42.794;23.302;2023-05-08T10:40:04;95715.97;;;22.56;nan
70072;BME280;57434;42.794;23.302;2023-05-08T10:41:06;95586.72;;;21.67;nan
70072;BME280;57434;42.794;23.302;2023-05-08T10:42:10;95629.81;;;22.14;nan
70072;BME280;57434;42.794;23.302;2023-05-08T10:43:14;95590.38;;;21.98;nan
70072;BME280;57434;42.794;23.302;2023-05-08T10:44:16;95599.69;;;21.83;nan
70072;BME280;57434;42.794;23.302;2023-05-08T10:45:19;95600.84;;;22.10;nan
70072;BME280;57434;42.794;23.302;2023-05-08T10:46:39;95727.56;;;22.81;nan
70072;BME280;57434;42.794;23.302;2023-05-08T10:49:16;95590.84;;;21.50;nan
70072;BME280;57434;42.794;23.302;2023-05-08T10:52:06;95713.47;;;22.60;nan